sensor_id;sensor_type;location;lat;lon;timestamp;pressure;altitude;pressure_sealevel;temperature;humidity
31121;BME280;17770;45.966;13.632;2023-04-23T00:02:25;100295.94;;;20.72;58.48
31121;BME280;17770;45.966;13.632;2023-04-23T00:04:51;100292.50;;;20.72;58.14
31121;BME280;17770;45.966;13.632;2023-04-23T00:07:18;100290.72;;;20.72;57.99
31121;BME280;17770;45.966;13.632;2023-04-23T00:09:45;100285.56;;;20.71;58.13
31121;BME280;17770;45.966;13.632;2023-04-23T00:12:11;100281.06;;;20.73;58.45
31121;BME280;17770;45.966;13.632;2023-04-23T00:14:38;100286.44;;;20.71;58.08
31121;BME280;17770;45.966;13.632;2023-04-23T00:17:03;100281.28;;;20.70;58.10
31121;BME280;17770;45.966;13.632;2023-04-23T00:19:29;100290.94;;;20.69;57.98
31121;BME280;17770;45.966;13.632;2023-04-23T00:21:55;100285.81;;;20.68;58.43
31121;BME280;17770;45.966;13.632;2023-04-23T00:24:21;100281.53;;;20.67;57.89
31121;BME280;17770;45.966;13.632;2023-04-23T00:26:47;100280.78;;;20.65;58.08
31121;BME280;17770;45.966;13.632;2023-04-23T00:29:13;100276.41;;;20.65;58.18
31121;BME280;17770;45.966;13.632;2023-04-23T00:31:38;100284.25;;;20.65;57.89
31121;BME280;17770;45.966;13.632;2023-04-23T00:34:04;100287.00;;;20.64;58.21
31121;BME280;17770;45.966;13.632;2023-04-23T00:36:30;100293.16;;;20.63;58.17
31121;BME280;17770;45.966;13.632;2023-04-23T00:38:56;100293.28;;;20.61;58.06
31121;BME280;17770;45.966;13.632;2023-04-23T00:41:22;100287.19;;;20.61;58.18
31121;BME280;17770;45.966;13.632;2023-04-23T00:43:48;100291.50;;;20.62;58.33
31121;BME280;17770;45.966;13.632;2023-04-23T00:46:17;100285.63;;;20.58;57.80
31121;BME280;17770;45.966;13.632;2023-04-23T00:48:43;100293.50;;;20.58;58.30
31121;BME280;17770;45.966;13.632;2023-04-23T00:51:10;100298.97;;;20.55;58.08
31121;BME280;17770;45.966;13.632;2023-04-23T00:53:36;100294.56;;;20.56;58.07
31121;BME280;17770;45.966;13.632;2023-04-23T00:56:03;100297.19;;;20.56;57.99
31121;BME280;17770;45.966;13.632;2023-04-23T00:58:30;100295.59;;;20.53;57.97
31121;BME280;17770;45.966;13.632;2023-04-23T01:00:56;100303.47;;;20.53;57.97
31121;BME280;17770;45.966;13.632;2023-04-23T01:03:22;100296.69;;;20.51;57.95
31121;BME280;17770;45.966;13.632;2023-04-23T01:05:49;100295.84;;;20.50;58.07
31121;BME280;17770;45.966;13.632;2023-04-23T01:08:16;100292.38;;;20.50;58.07
31121;BME280;17770;45.966;13.632;2023-04-23T01:10:43;100289.84;;;20.48;57.95
31121;BME280;17770;45.966;13.632;2023-04-23T01:13:09;100297.72;;;20.48;57.90
31121;BME280;17770;45.966;13.632;2023-04-23T01:15:36;100298.56;;;20.49;57.61
31121;BME280;17770;45.966;13.632;2023-04-23T01:18:02;100286.50;;;20.46;57.60
31121;BME280;17770;45.966;13.632;2023-04-23T01:20:30;100289.97;;;20.47;57.88
31121;BME280;17770;45.966;13.632;2023-04-23T01:22:56;100284.94;;;20.44;57.64
31121;BME280;17770;45.966;13.632;2023-04-23T01:25:22;100286.63;;;20.45;57.85
31121;BME280;17770;45.966;13.632;2023-04-23T01:27:48;100297.31;;;20.42;57.76
31121;BME280;17770;45.966;13.632;2023-04-23T01:30:14;100292.09;;;20.42;57.67
31121;BME280;17770;45.966;13.632;2023-04-23T01:32:41;100287.91;;;20.39;57.58
31121;BME280;17770;45.966;13.632;2023-04-23T01:35:08;100284.34;;;20.40;57.79
31121;BME280;17770;45.966;13.632;2023-04-23T01:37:34;100281.81;;;20.39;57.71
31121;BME280;17770;45.966;13.632;2023-04-23T01:40:01;100283.59;;;20.38;57.78
31121;BME280;17770;45.966;13.632;2023-04-23T01:42:27;100276.69;;;20.37;57.77
31121;BME280;17770;45.966;13.632;2023-04-23T01:44:53;100280.25;;;20.36;57.79
31121;BME280;17770;45.966;13.632;2023-04-23T01:47:19;100275.13;;;20.35;57.98
31121;BME280;17770;45.966;13.632;2023-04-23T01:49:45;100275.13;;;20.35;57.52
31121;BME280;17770;45.966;13.632;2023-04-23T01:52:11;100266.44;;;20.34;57.68
31121;BME280;17770;45.966;13.632;2023-04-23T01:54:37;100267.38;;;20.33;58.04
31121;BME280;17770;45.966;13.632;2023-04-23T01:57:03;100269.13;;;20.33;57.58
31121;BME280;17770;45.966;13.632;2023-04-23T01:59:29;100267.47;;;20.32;57.65
31121;BME280;17770;45.966;13.632;2023-04-23T02:01:55;100264.97;;;20.30;57.97
31121;BME280;17770;45.966;13.632;2023-04-23T02:04:21;100265.09;;;20.29;57.93
31121;BME280;17770;45.966;13.632;2023-04-23T02:06:48;100264.34;;;20.27;57.74
31121;BME280;17770;45.966;13.632;2023-04-23T02:09:15;100263.41;;;20.28;57.71
31121;BME280;17770;45.966;13.632;2023-04-23T02:11:41;100266.13;;;20.26;57.63
31121;BME280;17770;45.966;13.632;2023-04-23T02:14:07;100264.34;;;20.27;57.63
31121;BME280;17770;45.966;13.632;2023-04-23T02:16:33;100267.06;;;20.25;57.67
31121;BME280;17770;45.966;13.632;2023-04-23T02:18:59;100257.56;;;20.24;57.61
31121;BME280;17770;45.966;13.632;2023-04-23T02:21:26;100258.38;;;20.25;57.67
31121;BME280;17770;45.966;13.632;2023-04-23T02:23:52;100254.09;;;20.24;57.59
31121;BME280;17770;45.966;13.632;2023-04-23T02:26:18;100246.34;;;20.22;57.58
31121;BME280;17770;45.966;13.632;2023-04-23T02:28:44;100250.63;;;20.23;57.52
31121;BME280;17770;45.966;13.632;2023-04-23T02:31:10;100248.97;;;20.22;57.81
31121;BME280;17770;45.966;13.632;2023-04-23T02:33:38;100256.94;;;20.21;57.59
31121;BME280;17770;45.966;13.632;2023-04-23T02:36:04;100249.31;;;20.18;57.57
31121;BME280;17770;45.966;13.632;2023-04-23T02:38:30;100251.81;;;20.19;57.49
31121;BME280;17770;45.966;13.632;2023-04-23T02:40:56;100257.25;;;20.16;57.42
31121;BME280;17770;45.966;13.632;2023-04-23T02:43:21;100254.63;;;20.16;57.37
31121;BME280;17770;45.966;13.632;2023-04-23T02:45:47;100248.56;;;20.16;57.57
31121;BME280;17770;45.966;13.632;2023-04-23T02:48:13;100253.88;;;20.14;57.73
31121;BME280;17770;45.966;13.632;2023-04-23T02:50:39;100246.88;;;20.15;57.63
31121;BME280;17770;45.966;13.632;2023-04-23T02:53:05;100253.88;;;20.14;57.71
31121;BME280;17770;45.966;13.632;2023-04-23T02:55:31;100253.03;;;20.14;57.28
31121;BME280;17770;45.966;13.632;2023-04-23T02:57:57;100249.69;;;20.12;57.70
31121;BME280;17770;45.966;13.632;2023-04-23T03:00:24;100248.94;;;20.10;57.45
31121;BME280;17770;45.966;13.632;2023-04-23T03:02:50;100250.75;;;20.09;57.25
31121;BME280;17770;45.966;13.632;2023-04-23T03:05:16;100253.47;;;20.08;57.29
31121;BME280;17770;45.966;13.632;2023-04-23T03:07:42;100255.13;;;20.09;57.17
31121;BME280;17770;45.966;13.632;2023-04-23T03:10:08;100249.06;;;20.08;57.41
31121;BME280;17770;45.966;13.632;2023-04-23T03:12:34;100252.63;;;20.07;57.34
31121;BME280;17770;45.966;13.632;2023-04-23T03:15:00;100254.50;;;20.05;57.61
31121;BME280;17770;45.966;13.632;2023-04-23T03:17:28;100251.91;;;20.05;57.36
31121;BME280;17770;45.966;13.632;2023-04-23T03:19:54;100248.53;;;20.03;57.29
31121;BME280;17770;45.966;13.632;2023-04-23T03:22:21;100249.38;;;20.04;57.38
31121;BME280;17770;45.966;13.632;2023-04-23T03:24:47;100235.56;;;20.02;57.17
31121;BME280;17770;45.966;13.632;2023-04-23T03:27:13;100239.88;;;20.03;57.20
31121;BME280;17770;45.966;13.632;2023-04-23T03:29:39;100243.53;;;20.00;57.17
31121;BME280;17770;45.966;13.632;2023-04-23T03:32:06;100240.09;;;20.00;57.33
31121;BME280;17770;45.966;13.632;2023-04-23T03:34:32;100236.63;;;19.99;57.32
31121;BME280;17770;45.966;13.632;2023-04-23T03:36:58;100241.00;;;19.99;57.47
31121;BME280;17770;45.966;13.632;2023-04-23T03:39:24;100245.41;;;19.98;57.14
31121;BME280;17770;45.966;13.632;2023-04-23T03:41:52;100237.66;;;19.97;57.39
31121;BME280;17770;45.966;13.632;2023-04-23T03:44:22;100243.84;;;19.96;57.06
31121;BME280;17770;45.966;13.632;2023-04-23T03:46:49;100244.81;;;19.95;57.22
31121;BME280;17770;45.966;13.632;2023-04-23T03:49:16;100249.09;;;19.96;56.97
31121;BME280;17770;45.966;13.632;2023-04-23T03:51:43;100243.97;;;19.94;57.37
31121;BME280;17770;45.966;13.632;2023-04-23T03:54:09;100239.66;;;19.93;57.10
31121;BME280;17770;45.966;13.632;2023-04-23T03:56:55;100253.69;;;19.92;57.41
31121;BME280;17770;45.966;13.632;2023-04-23T03:59:26;100243.34;;;19.91;57.14
31121;BME280;17770;45.966;13.632;2023-04-23T04:01:54;100243.34;;;19.91;57.18
31121;BME280;17770;45.966;13.632;2023-04-23T04:04:20;100241.69;;;19.90;57.09
31121;BME280;17770;45.966;13.632;2023-04-23T04:06:48;100235.59;;;19.89;56.94
31121;BME280;17770;45.966;13.632;2023-04-23T04:09:13;100235.69;;;19.88;57.07
31121;BME280;17770;45.966;13.632;2023-04-23T04:11:39;100236.56;;;19.88;57.06
31121;BME280;17770;45.966;13.632;2023-04-23T04:14:05;100239.16;;;19.88;56.93
31121;BME280;17770;45.966;13.632;2023-04-23T04:16:31;100243.56;;;19.88;56.86
31121;BME280;17770;45.966;13.632;2023-04-23T04:18:57;100241.84;;;19.87;56.92
31121;BME280;17770;45.966;13.632;2023-04-23T04:21:23;100242.81;;;19.86;57.08
31121;BME280;17770;45.966;13.632;2023-04-23T04:23:49;100241.03;;;19.86;57.11
31121;BME280;17770;45.966;13.632;2023-04-23T04:26:15;100243.78;;;19.85;57.21
31121;BME280;17770;45.966;13.632;2023-04-23T04:28:41;100242.09;;;19.84;57.02
31121;BME280;17770;45.966;13.632;2023-04-23T04:31:07;100249.13;;;19.83;57.20
31121;BME280;17770;45.966;13.632;2023-04-23T04:33:34;100237.81;;;19.83;56.98
31121;BME280;17770;45.966;13.632;2023-04-23T04:36:00;100239.69;;;19.81;57.05
31121;BME280;17770;45.966;13.632;2023-04-23T04:38:26;100243.97;;;19.82;56.81
31121;BME280;17770;45.966;13.632;2023-04-23T04:40:53;100244.91;;;19.81;57.04
31121;BME280;17770;45.966;13.632;2023-04-23T04:43:20;100248.38;;;19.81;56.76
31121;BME280;17770;45.966;13.632;2023-04-23T04:45:45;100251.91;;;19.80;56.81
31121;BME280;17770;45.966;13.632;2023-04-23T04:48:12;100245.88;;;19.80;57.04
31121;BME280;17770;45.966;13.632;2023-04-23T04:50:38;100245.88;;;19.80;56.86
31121;BME280;17770;45.966;13.632;2023-04-23T04:53:03;100242.41;;;19.79;56.85
31121;BME280;17770;45.966;13.632;2023-04-23T04:55:29;100252.97;;;19.78;56.83
31121;BME280;17770;45.966;13.632;2023-04-23T04:57:55;100246.06;;;19.77;56.79
31121;BME280;17770;45.966;13.632;2023-04-23T05:00:22;100253.09;;;19.76;56.77
31121;BME280;17770;45.966;13.632;2023-04-23T05:02:49;100254.88;;;19.76;56.79
31121;BME280;17770;45.966;13.632;2023-04-23T05:05:15;100253.19;;;19.75;56.89
31121;BME280;17770;45.966;13.632;2023-04-23T05:07:41;100260.09;;;19.76;56.70
31121;BME280;17770;45.966;13.632;2023-04-23T05:10:07;100252.34;;;19.74;56.65
31121;BME280;17770;45.966;13.632;2023-04-23T05:12:33;100266.28;;;19.75;56.94
31121;BME280;17770;45.966;13.632;2023-04-23T05:14:59;100256.75;;;19.74;56.86
31121;BME280;17770;45.966;13.632;2023-04-23T05:17:25;100265.53;;;19.73;57.05
31121;BME280;17770;45.966;13.632;2023-04-23T05:19:51;100267.22;;;19.74;56.95
31121;BME280;17770;45.966;13.632;2023-04-23T05:22:16;100264.69;;;19.72;56.70
31121;BME280;17770;45.966;13.632;2023-04-23T05:24:42;100266.50;;;19.72;56.75
31121;BME280;17770;45.966;13.632;2023-04-23T05:27:09;100265.75;;;19.70;56.62
31121;BME280;17770;45.966;13.632;2023-04-23T05:29:35;100271.75;;;19.72;56.68
31121;BME280;17770;45.966;13.632;2023-04-23T05:32:01;100266.56;;;19.70;56.66
31121;BME280;17770;45.966;13.632;2023-04-23T05:34:27;100262.19;;;19.71;57.06
31121;BME280;17770;45.966;13.632;2023-04-23T05:36:53;100263.16;;;19.70;56.63
31121;BME280;17770;45.966;13.632;2023-04-23T05:39:19;100267.63;;;19.68;56.86
31121;BME280;17770;45.966;13.632;2023-04-23T05:41:45;100268.50;;;19.68;56.82
31121;BME280;17770;45.966;13.632;2023-04-23T05:44:11;100265.97;;;19.67;56.67
31121;BME280;17770;45.966;13.632;2023-04-23T05:46:36;100266.78;;;19.67;56.67
31121;BME280;17770;45.966;13.632;2023-04-23T05:49:03;100265.97;;;19.67;56.80
31121;BME280;17770;45.966;13.632;2023-04-23T05:51:29;100271.22;;;19.67;56.74
31121;BME280;17770;45.966;13.632;2023-04-23T05:53:55;100269.41;;;19.67;56.66
31121;BME280;17770;45.966;13.632;2023-04-23T05:56:21;100276.44;;;19.67;56.45
31121;BME280;17770;45.966;13.632;2023-04-23T05:58:47;100270.38;;;19.66;56.42
31121;BME280;17770;45.966;13.632;2023-04-23T06:01:12;100279.97;;;19.66;56.47
31121;BME280;17770;45.966;13.632;2023-04-23T06:03:39;100279.25;;;19.64;56.41
31121;BME280;17770;45.966;13.632;2023-04-23T06:06:12;100281.84;;;19.64;56.53
31121;BME280;17770;45.966;13.632;2023-04-23T06:08:38;100280.19;;;19.63;56.82
31121;BME280;17770;45.966;13.632;2023-04-23T06:11:04;100280.19;;;19.63;56.56
31121;BME280;17770;45.966;13.632;2023-04-23T06:13:30;100281.03;;;19.63;56.43
31121;BME280;17770;45.966;13.632;2023-04-23T06:15:56;100282.91;;;19.61;56.54
31121;BME280;17770;45.966;13.632;2023-04-23T06:18:22;100289.81;;;19.62;56.30
31121;BME280;17770;45.966;13.632;2023-04-23T06:20:48;100289.81;;;19.62;56.37
31121;BME280;17770;45.966;13.632;2023-04-23T06:23:16;100286.38;;;19.62;56.50
31121;BME280;17770;45.966;13.632;2023-04-23T06:25:42;100284.69;;;19.61;56.63
31121;BME280;17770;45.966;13.632;2023-04-23T06:28:08;100282.91;;;19.61;56.70
31121;BME280;17770;45.966;13.632;2023-04-23T06:30:42;100284.69;;;19.61;56.57
31121;BME280;17770;45.966;13.632;2023-04-23T06:33:08;100289.94;;;19.61;56.60
31121;BME280;17770;45.966;13.632;2023-04-23T06:35:34;100277.69;;;19.61;56.42
31121;BME280;17770;45.966;13.632;2023-04-23T06:38:00;100284.69;;;19.61;56.50
31121;BME280;17770;45.966;13.632;2023-04-23T06:40:25;100286.50;;;19.60;56.46
31121;BME280;17770;45.966;13.632;2023-04-23T06:42:51;100279.47;;;19.61;56.64
31121;BME280;17770;45.966;13.632;2023-04-23T06:45:30;100277.78;;;19.60;56.39
31121;BME280;17770;45.966;13.632;2023-04-23T06:47:57;100283.88;;;19.60;56.69
31121;BME280;17770;45.966;13.632;2023-04-23T06:50:23;100281.25;;;19.60;56.23
31121;BME280;17770;45.966;13.632;2023-04-23T06:52:49;100282.19;;;19.59;56.45
31121;BME280;17770;45.966;13.632;2023-04-23T06:55:15;100288.25;;;19.60;56.38
31121;BME280;17770;45.966;13.632;2023-04-23T06:57:41;100290.88;;;19.60;56.49
31121;BME280;17770;45.966;13.632;2023-04-23T07:00:07;100290.03;;;19.59;56.33
31121;BME280;17770;45.966;13.632;2023-04-23T07:02:38;100283.13;;;19.58;56.54
31121;BME280;17770;45.966;13.632;2023-04-23T07:05:04;100280.41;;;19.60;56.63
31121;BME280;17770;45.966;13.632;2023-04-23T07:07:30;100284.78;;;19.59;56.39
31121;BME280;17770;45.966;13.632;2023-04-23T07:09:56;100283.94;;;19.59;56.78
31121;BME280;17770;45.966;13.632;2023-04-23T07:12:22;100284.91;;;19.58;56.74
31121;BME280;17770;45.966;13.632;2023-04-23T07:14:47;100282.28;;;19.58;56.59
31121;BME280;17770;45.966;13.632;2023-04-23T07:17:13;100284.91;;;19.58;56.63
31121;BME280;17770;45.966;13.632;2023-04-23T07:19:39;100284.91;;;19.58;56.49
31121;BME280;17770;45.966;13.632;2023-04-23T07:22:05;100285.84;;;19.57;56.54
31121;BME280;17770;45.966;13.632;2023-04-23T07:24:31;100289.28;;;19.57;56.82
31121;BME280;17770;45.966;13.632;2023-04-23T07:26:57;100280.63;;;19.57;56.42
31121;BME280;17770;45.966;13.632;2023-04-23T07:29:23;100285.84;;;19.57;56.51
31121;BME280;17770;45.966;13.632;2023-04-23T07:31:49;100282.41;;;19.56;56.47
31121;BME280;17770;45.966;13.632;2023-04-23T07:34:15;100285.84;;;19.57;56.74
31121;BME280;17770;45.966;13.632;2023-04-23T07:36:41;100286.78;;;19.56;56.26
31121;BME280;17770;45.966;13.632;2023-04-23T07:39:07;100285.13;;;19.55;56.55
31121;BME280;17770;45.966;13.632;2023-04-23T07:41:33;100294.63;;;19.56;56.59
31121;BME280;17770;45.966;13.632;2023-04-23T07:43:59;100295.59;;;19.55;56.34
31121;BME280;17770;45.966;13.632;2023-04-23T07:46:25;100296.50;;;19.54;56.62
31121;BME280;17770;45.966;13.632;2023-04-23T07:48:51;100294.63;;;19.56;56.82
31121;BME280;17770;45.966;13.632;2023-04-23T07:51:18;100299.03;;;19.55;56.62
31121;BME280;17770;45.966;13.632;2023-04-23T07:53:43;100296.44;;;19.55;56.88
31121;BME280;17770;45.966;13.632;2023-04-23T07:56:11;100295.59;;;19.55;56.52
31121;BME280;17770;45.966;13.632;2023-04-23T07:58:37;100292.13;;;19.54;56.62
31121;BME280;17770;45.966;13.632;2023-04-23T08:01:03;100294.72;;;19.54;56.67
31121;BME280;17770;45.966;13.632;2023-04-23T08:03:28;100292.97;;;19.55;56.56
31121;BME280;17770;45.966;13.632;2023-04-23T08:05:54;100292.97;;;19.55;56.38
31121;BME280;17770;45.966;13.632;2023-04-23T08:08:21;100297.13;;;19.57;56.41
31121;BME280;17770;45.966;13.632;2023-04-23T08:10:47;100296.31;;;19.57;56.82
31121;BME280;17770;45.966;13.632;2023-04-23T08:13:13;100293.72;;;19.57;56.87
31121;BME280;17770;45.966;13.632;2023-04-23T08:15:39;100298.09;;;19.56;56.44
31121;BME280;17770;45.966;13.632;2023-04-23T08:18:05;100291.09;;;19.57;56.63
31121;BME280;17770;45.966;13.632;2023-04-23T08:20:31;100291.09;;;19.57;56.88
31121;BME280;17770;45.966;13.632;2023-04-23T08:22:57;100287.63;;;19.56;56.76
31121;BME280;17770;45.966;13.632;2023-04-23T08:25:23;100287.63;;;19.56;56.87
31121;BME280;17770;45.966;13.632;2023-04-23T08:27:49;100291.09;;;19.57;56.96
31121;BME280;17770;45.966;13.632;2023-04-23T08:30:15;100284.91;;;19.58;56.60
31121;BME280;17770;45.966;13.632;2023-04-23T08:32:40;100283.13;;;19.58;56.80
31121;BME280;17770;45.966;13.632;2023-04-23T08:35:06;100276.94;;;19.59;56.70
31121;BME280;17770;45.966;13.632;2023-04-23T08:37:33;100276.09;;;19.59;56.79
31121;BME280;17770;45.966;13.632;2023-04-23T08:39:59;100276.84;;;19.61;56.63
31121;BME280;17770;45.966;13.632;2023-04-23T08:44:57;100277.59;;;19.63;56.84
31121;BME280;17770;45.966;13.632;2023-04-23T08:47:23;100279.34;;;19.62;56.83
31121;BME280;17770;45.966;13.632;2023-04-23T08:49:50;100272.34;;;19.63;57.00
31121;BME280;17770;45.966;13.632;2023-04-23T08:52:21;100277.38;;;19.66;56.82
31121;BME280;17770;45.966;13.632;2023-04-23T08:54:49;100278.31;;;19.65;57.01
31121;BME280;17770;45.966;13.632;2023-04-23T08:57:16;100284.28;;;19.67;56.70
31121;BME280;17770;45.966;13.632;2023-04-23T08:59:43;100276.44;;;19.67;56.90
31121;BME280;17770;45.966;13.632;2023-04-23T09:02:09;100279.88;;;19.67;56.87
31121;BME280;17770;45.966;13.632;2023-04-23T09:04:35;100275.38;;;19.69;56.79
31121;BME280;17770;45.966;13.632;2023-04-23T09:07:01;100275.28;;;19.71;56.95
31121;BME280;17770;45.966;13.632;2023-04-23T09:09:29;100273.63;;;19.70;56.66
31121;BME280;17770;45.966;13.632;2023-04-23T09:11:55;100269.19;;;19.70;56.86
31121;BME280;17770;45.966;13.632;2023-04-23T09:14:22;100267.44;;;19.71;56.79
31121;BME280;17770;45.966;13.632;2023-04-23T09:16:49;100277.03;;;19.70;56.50
31121;BME280;17770;45.966;13.632;2023-04-23T09:19:16;100278.75;;;19.71;56.67
31121;BME280;17770;45.966;13.632;2023-04-23T09:21:42;100281.34;;;19.71;56.84
31121;BME280;17770;45.966;13.632;2023-04-23T09:24:09;100276.00;;;19.73;56.73
31121;BME280;17770;45.966;13.632;2023-04-23T09:26:45;100272.56;;;19.72;56.74
31121;BME280;17770;45.966;13.632;2023-04-23T09:29:16;100277.69;;;19.74;56.85
31121;BME280;17770;45.966;13.632;2023-04-23T09:31:44;100264.59;;;19.74;57.03
31121;BME280;17770;45.966;13.632;2023-04-23T09:34:10;100270.56;;;19.76;56.95
31121;BME280;17770;45.966;13.632;2023-04-23T09:36:36;100270.56;;;19.76;57.53
31121;BME280;17770;45.966;13.632;2023-04-23T09:39:02;100259.16;;;19.77;56.89
31121;BME280;17770;45.966;13.632;2023-04-23T09:41:36;100255.50;;;19.79;57.09
31121;BME280;17770;45.966;13.632;2023-04-23T09:44:01;100258.97;;;19.80;57.17
31121;BME280;17770;45.966;13.632;2023-04-23T09:46:38;100258.13;;;19.79;57.07
31121;BME280;17770;45.966;13.632;2023-04-23T09:49:05;100258.00;;;19.81;57.49
31121;BME280;17770;45.966;13.632;2023-04-23T09:51:38;100259.66;;;19.82;57.65
31121;BME280;17770;45.966;13.632;2023-04-23T09:54:12;100255.28;;;19.82;57.85
31121;BME280;17770;45.966;13.632;2023-04-23T09:56:39;100257.78;;;19.84;57.74
31121;BME280;17770;45.966;13.632;2023-04-23T10:01:49;100247.22;;;19.85;57.99
31121;BME280;17770;45.966;13.632;2023-04-23T10:04:19;100260.19;;;19.87;58.12
31121;BME280;17770;45.966;13.632;2023-04-23T10:06:47;100254.94;;;19.87;57.56
31121;BME280;17770;45.966;13.632;2023-04-23T10:09:13;100251.41;;;19.88;58.01
31121;BME280;17770;45.966;13.632;2023-04-23T10:11:39;100248.56;;;19.91;58.06
31121;BME280;17770;45.966;13.632;2023-04-23T10:14:06;100252.03;;;19.91;58.35
31121;BME280;17770;45.966;13.632;2023-04-23T10:16:32;100251.09;;;19.92;58.06
31121;BME280;17770;45.966;13.632;2023-04-23T10:18:59;100251.81;;;19.94;58.23
31121;BME280;17770;45.966;13.632;2023-04-23T10:21:26;100252.66;;;19.95;58.38
31121;BME280;17770;45.966;13.632;2023-04-23T10:23:54;100256.00;;;19.97;58.34
31121;BME280;17770;45.966;13.632;2023-04-23T10:26:23;100253.25;;;19.98;58.71
31121;BME280;17770;45.966;13.632;2023-04-23T10:28:51;100251.38;;;20.00;58.40
31121;BME280;17770;45.966;13.632;2023-04-23T10:31:19;100246.13;;;20.00;58.17
31121;BME280;17770;45.966;13.632;2023-04-23T10:33:46;100245.31;;;20.00;57.96
31121;BME280;17770;45.966;13.632;2023-04-23T10:36:12;100246.03;;;20.02;58.42
31121;BME280;17770;45.966;13.632;2023-04-23T10:38:39;100246.75;;;20.04;59.08
31121;BME280;17770;45.966;13.632;2023-04-23T10:41:06;100250.97;;;20.06;58.73
31121;BME280;17770;45.966;13.632;2023-04-23T10:43:32;100248.44;;;20.05;57.68
31121;BME280;17770;45.966;13.632;2023-04-23T10:45:59;100245.63;;;20.08;57.93
31121;BME280;17770;45.966;13.632;2023-04-23T10:48:28;100245.63;;;20.08;56.92
31121;BME280;17770;45.966;13.632;2023-04-23T10:50:57;100242.78;;;20.11;58.92
31121;BME280;17770;45.966;13.632;2023-04-23T10:53:26;100248.88;;;20.11;58.98
31121;BME280;17770;45.966;13.632;2023-04-23T10:56:05;100246.31;;;20.10;57.56
31121;BME280;17770;45.966;13.632;2023-04-23T10:58:47;100251.47;;;20.11;57.60
31121;BME280;17770;45.966;13.632;2023-04-23T11:01:15;100239.22;;;20.12;57.46
31121;BME280;17770;45.966;13.632;2023-04-23T11:03:41;100241.63;;;20.15;58.45
31121;BME280;17770;45.966;13.632;2023-04-23T11:06:07;100241.63;;;20.15;56.96
31121;BME280;17770;45.966;13.632;2023-04-23T11:08:36;100246.75;;;20.16;57.33
31121;BME280;17770;45.966;13.632;2023-04-23T11:11:06;100244.75;;;20.20;57.30
31121;BME280;17770;45.966;13.632;2023-04-23T11:13:32;100237.88;;;20.19;58.48
31121;BME280;17770;45.966;13.632;2023-04-23T11:16:19;100239.53;;;20.20;57.26
31121;BME280;17770;45.966;13.632;2023-04-23T11:18:56;100235.88;;;20.22;57.59
31121;BME280;17770;45.966;13.632;2023-04-23T11:21:22;100236.28;;;20.29;59.38
31121;BME280;17770;45.966;13.632;2023-04-23T11:23:47;100231.66;;;20.32;59.51
31121;BME280;17770;45.966;13.632;2023-04-23T11:26:15;100226.53;;;20.31;57.38
31121;BME280;17770;45.966;13.632;2023-04-23T11:28:42;100226.53;;;20.31;56.62
31121;BME280;17770;45.966;13.632;2023-04-23T11:31:09;100229.03;;;20.32;57.20
31121;BME280;17770;45.966;13.632;2023-04-23T11:33:36;100232.38;;;20.34;57.69
31121;BME280;17770;45.966;13.632;2023-04-23T11:36:02;100221.06;;;20.34;57.56
31121;BME280;17770;45.966;13.632;2023-04-23T11:38:31;100214.97;;;20.33;57.30
31121;BME280;17770;45.966;13.632;2023-04-23T11:41:01;100213.81;;;20.37;57.93
31121;BME280;17770;45.966;13.632;2023-04-23T11:43:27;100212.97;;;20.37;57.87
31121;BME280;17770;45.966;13.632;2023-04-23T11:45:54;100211.09;;;20.39;57.63
31121;BME280;17770;45.966;13.632;2023-04-23T11:48:20;100208.34;;;20.40;58.04
31121;BME280;17770;45.966;13.632;2023-04-23T11:50:46;100211.72;;;20.42;58.11
31121;BME280;17770;45.966;13.632;2023-04-23T11:53:12;100201.94;;;20.44;57.48
31121;BME280;17770;45.966;13.632;2023-04-23T11:55:38;100196.59;;;20.46;58.23
31121;BME280;17770;45.966;13.632;2023-04-23T11:58:08;100205.41;;;20.45;58.05
31121;BME280;17770;45.966;13.632;2023-04-23T12:00:34;100206.13;;;20.47;57.69
31121;BME280;17770;45.966;13.632;2023-04-23T12:03:01;100191.13;;;20.49;58.05
31121;BME280;17770;45.966;13.632;2023-04-23T12:07:53;100194.50;;;20.51;58.22
31121;BME280;17770;45.966;13.632;2023-04-23T12:10:19;100189.03;;;20.54;58.70
31121;BME280;17770;45.966;13.632;2023-04-23T12:12:50;100195.91;;;20.55;59.56
31121;BME280;17770;45.966;13.632;2023-04-23T12:15:16;100196.53;;;20.58;58.33
31121;BME280;17770;45.966;13.632;2023-04-23T12:17:42;100196.31;;;20.61;58.70
31121;BME280;17770;45.966;13.632;2023-04-23T12:20:15;100189.41;;;20.60;58.51
31121;BME280;17770;45.966;13.632;2023-04-23T12:22:41;100184.78;;;20.64;58.67
31121;BME280;17770;45.966;13.632;2023-04-23T12:25:07;100183.81;;;20.65;58.86
31121;BME280;17770;45.966;13.632;2023-04-23T12:27:37;100184.53;;;20.67;58.74
31121;BME280;17770;45.966;13.632;2023-04-23T12:30:04;100174.69;;;20.70;58.44
31121;BME280;17770;45.966;13.632;2023-04-23T12:32:32;100183.97;;;20.74;59.44
31121;BME280;17770;45.966;13.632;2023-04-23T12:34:58;100184.81;;;20.75;58.28
31121;BME280;17770;45.966;13.632;2023-04-23T12:37:25;100176.59;;;20.80;58.92
31121;BME280;17770;45.966;13.632;2023-04-23T12:39:51;100174.81;;;20.80;58.95
31121;BME280;17770;45.966;13.632;2023-04-23T12:42:18;100180.78;;;20.82;59.26
31121;BME280;17770;45.966;13.632;2023-04-23T12:44:44;100175.44;;;20.84;59.15
31121;BME280;17770;45.966;13.632;2023-04-23T12:47:10;100168.38;;;20.84;58.99